sensor_id;sensor_type;location;lat;lon;timestamp;temperature;humidity
21834;DHT22;11079;51.092;3.458;2023-04-25T00:01:20;10.90;99.90
21834;DHT22;11079;51.092;3.458;2023-04-25T00:03:48;10.60;99.90
21834;DHT22;11079;51.092;3.458;2023-04-25T00:06:14;10.70;99.90
21834;DHT22;11079;51.092;3.458;2023-04-25T00:08:40;10.90;99.90
21834;DHT22;11079;51.092;3.458;2023-04-25T00:11:05;11.00;99.90
21834;DHT22;11079;51.092;3.458;2023-04-25T00:13:31;10.80;99.90
21834;DHT22;11079;51.092;3.458;2023-04-25T00:15:57;10.70;99.90
21834;DHT22;11079;51.092;3.458;2023-04-25T00:18:23;10.80;99.90
21834;DHT22;11079;51.092;3.458;2023-04-25T00:20:49;10.70;99.90
21834;DHT22;11079;51.092;3.458;2023-04-25T00:23:16;10.80;99.90
21834;DHT22;11079;51.092;3.458;2023-04-25T00:25:48;10.80;99.90
21834;DHT22;11079;51.092;3.458;2023-04-25T00:28:14;10.80;99.90
21834;DHT22;11079;51.092;3.458;2023-04-25T00:30:41;10.80;99.90
21834;DHT22;11079;51.092;3.458;2023-04-25T00:33:06;10.60;99.90
21834;DHT22;11079;51.092;3.458;2023-04-25T00:35:32;10.70;99.90
21834;DHT22;11079;51.092;3.458;2023-04-25T00:37:58;10.60;99.90
21834;DHT22;11079;51.092;3.458;2023-04-25T00:40:24;10.40;99.90
21834;DHT22;11079;51.092;3.458;2023-04-25T00:42:52;10.40;99.90
21834;DHT22;11079;51.092;3.458;2023-04-25T00:45:18;10.50;99.90
21834;DHT22;11079;51.092;3.458;2023-04-25T00:47:44;10.60;99.90
21834;DHT22;11079;51.092;3.458;2023-04-25T00:50:11;10.60;99.90
21834;DHT22;11079;51.092;3.458;2023-04-25T00:52:43;10.70;99.90
21834;DHT22;11079;51.092;3.458;2023-04-25T00:55:10;10.50;99.90
21834;DHT22;11079;51.092;3.458;2023-04-25T00:57:36;10.20;99.90
21834;DHT22;11079;51.092;3.458;2023-04-25T01:00:04;9.90;99.90
21834;DHT22;11079;51.092;3.458;2023-04-25T01:02:33;9.80;99.90
21834;DHT22;11079;51.092;3.458;2023-04-25T01:04:59;9.70;99.90
21834;DHT22;11079;51.092;3.458;2023-04-25T01:07:25;9.60;99.90
21834;DHT22;11079;51.092;3.458;2023-04-25T01:09:52;9.70;99.90
21834;DHT22;11079;51.092;3.458;2023-04-25T01:12:18;9.80;99.90
21834;DHT22;11079;51.092;3.458;2023-04-25T01:14:44;9.80;99.90
21834;DHT22;11079;51.092;3.458;2023-04-25T01:17:11;10.00;99.90
21834;DHT22;11079;51.092;3.458;2023-04-25T01:19:37;9.80;99.90
21834;DHT22;11079;51.092;3.458;2023-04-25T01:22:03;9.70;99.90
21834;DHT22;11079;51.092;3.458;2023-04-25T01:24:32;9.50;99.90
21834;DHT22;11079;51.092;3.458;2023-04-25T01:26:59;9.20;99.90
21834;DHT22;11079;51.092;3.458;2023-04-25T01:29:28;9.10;99.90
21834;DHT22;11079;51.092;3.458;2023-04-25T01:31:54;9.10;99.90
21834;DHT22;11079;51.092;3.458;2023-04-25T01:34:20;9.10;99.90
21834;DHT22;11079;51.092;3.458;2023-04-25T01:36:49;9.10;99.90
21834;DHT22;11079;51.092;3.458;2023-04-25T01:39:17;9.20;99.90
21834;DHT22;11079;51.092;3.458;2023-04-25T01:41:43;9.30;99.90
21834;DHT22;11079;51.092;3.458;2023-04-25T01:44:09;9.20;99.90
21834;DHT22;11079;51.092;3.458;2023-04-25T01:46:35;9.10;99.90
21834;DHT22;11079;51.092;3.458;2023-04-25T01:49:01;8.90;99.90
21834;DHT22;11079;51.092;3.458;2023-04-25T01:51:27;9.00;99.90
21834;DHT22;11079;51.092;3.458;2023-04-25T01:53:52;8.90;99.90
21834;DHT22;11079;51.092;3.458;2023-04-25T01:56:19;8.60;99.90
21834;DHT22;11079;51.092;3.458;2023-04-25T01:58:45;8.60;99.90
21834;DHT22;11079;51.092;3.458;2023-04-25T02:01:11;8.50;99.90
21834;DHT22;11079;51.092;3.458;2023-04-25T02:03:37;8.60;99.90
21834;DHT22;11079;51.092;3.458;2023-04-25T02:06:03;8.80;99.90
21834;DHT22;11079;51.092;3.458;2023-04-25T02:08:28;9.00;99.90
21834;DHT22;11079;51.092;3.458;2023-04-25T02:10:55;9.00;99.90
21834;DHT22;11079;51.092;3.458;2023-04-25T02:13:21;9.20;99.90
21834;DHT22;11079;51.092;3.458;2023-04-25T02:15:47;9.40;99.90
21834;DHT22;11079;51.092;3.458;2023-04-25T02:18:12;9.40;99.90
21834;DHT22;11079;51.092;3.458;2023-04-25T02:20:38;9.40;99.90
21834;DHT22;11079;51.092;3.458;2023-04-25T02:23:04;9.20;99.90
21834;DHT22;11079;51.092;3.458;2023-04-25T02:25:29;9.20;99.90
21834;DHT22;11079;51.092;3.458;2023-04-25T02:27:55;9.20;99.90
21834;DHT22;11079;51.092;3.458;2023-04-25T02:30:21;9.30;99.90
21834;DHT22;11079;51.092;3.458;2023-04-25T02:32:47;9.50;99.90
21834;DHT22;11079;51.092;3.458;2023-04-25T02:35:12;9.60;99.90
21834;DHT22;11079;51.092;3.458;2023-04-25T02:37:39;9.50;99.90
21834;DHT22;11079;51.092;3.458;2023-04-25T02:40:06;9.70;99.90
21834;DHT22;11079;51.092;3.458;2023-04-25T02:42:32;9.70;99.90
21834;DHT22;11079;51.092;3.458;2023-04-25T02:44:58;9.70;99.90
21834;DHT22;11079;51.092;3.458;2023-04-25T02:47:24;9.70;99.90
21834;DHT22;11079;51.092;3.458;2023-04-25T02:49:49;9.60;99.90
21834;DHT22;11079;51.092;3.458;2023-04-25T02:52:16;9.50;99.90
21834;DHT22;11079;51.092;3.458;2023-04-25T02:54:42;9.60;99.90
21834;DHT22;11079;51.092;3.458;2023-04-25T02:57:08;9.60;99.90
21834;DHT22;11079;51.092;3.458;2023-04-25T02:59:33;9.20;99.90
21834;DHT22;11079;51.092;3.458;2023-04-25T03:02:01;8.60;99.90
21834;DHT22;11079;51.092;3.458;2023-04-25T03:04:27;8.20;99.90
21834;DHT22;11079;51.092;3.458;2023-04-25T03:06:53;8.00;99.90
21834;DHT22;11079;51.092;3.458;2023-04-25T03:09:19;7.90;99.90
21834;DHT22;11079;51.092;3.458;2023-04-25T03:11:45;8.00;99.90
21834;DHT22;11079;51.092;3.458;2023-04-25T03:14:12;8.00;99.90
21834;DHT22;11079;51.092;3.458;2023-04-25T03:16:38;8.10;99.90
21834;DHT22;11079;51.092;3.458;2023-04-25T03:19:04;8.10;99.90
21834;DHT22;11079;51.092;3.458;2023-04-25T03:21:34;8.20;99.90
21834;DHT22;11079;51.092;3.458;2023-04-25T03:24:02;8.10;99.90
21834;DHT22;11079;51.092;3.458;2023-04-25T03:26:28;8.20;99.90
21834;DHT22;11079;51.092;3.458;2023-04-25T03:28:53;8.30;99.90
21834;DHT22;11079;51.092;3.458;2023-04-25T03:31:19;8.40;99.90
21834;DHT22;11079;51.092;3.458;2023-04-25T03:33:45;8.50;99.90
21834;DHT22;11079;51.092;3.458;2023-04-25T03:36:11;8.40;99.90
21834;DHT22;11079;51.092;3.458;2023-04-25T03:38:36;8.40;99.90
21834;DHT22;11079;51.092;3.458;2023-04-25T03:41:02;8.50;99.90
21834;DHT22;11079;51.092;3.458;2023-04-25T03:43:28;8.60;99.90
21834;DHT22;11079;51.092;3.458;2023-04-25T03:45:54;8.70;99.90
21834;DHT22;11079;51.092;3.458;2023-04-25T03:48:20;8.70;99.90
21834;DHT22;11079;51.092;3.458;2023-04-25T03:50:47;8.90;99.90
21834;DHT22;11079;51.092;3.458;2023-04-25T03:53:13;8.90;99.90
21834;DHT22;11079;51.092;3.458;2023-04-25T03:55:39;9.00;99.90
21834;DHT22;11079;51.092;3.458;2023-04-25T03:58:05;8.90;99.90
21834;DHT22;11079;51.092;3.458;2023-04-25T04:00:31;8.60;99.90
21834;DHT22;11079;51.092;3.458;2023-04-25T04:02:57;8.60;99.90
21834;DHT22;11079;51.092;3.458;2023-04-25T04:05:22;8.50;99.90
21834;DHT22;11079;51.092;3.458;2023-04-25T04:07:48;8.40;99.90
21834;DHT22;11079;51.092;3.458;2023-04-25T04:10:14;8.30;99.90
21834;DHT22;11079;51.092;3.458;2023-04-25T04:12:40;8.10;99.90
21834;DHT22;11079;51.092;3.458;2023-04-25T04:15:06;8.10;99.90
21834;DHT22;11079;51.092;3.458;2023-04-25T04:17:32;8.10;99.90
21834;DHT22;11079;51.092;3.458;2023-04-25T04:19:58;8.20;99.90
21834;DHT22;11079;51.092;3.458;2023-04-25T04:22:24;8.30;99.90
21834;DHT22;11079;51.092;3.458;2023-04-25T04:24:50;8.20;99.90
21834;DHT22;11079;51.092;3.458;2023-04-25T04:27:17;8.20;99.90
21834;DHT22;11079;51.092;3.458;2023-04-25T04:29:43;8.20;99.90
21834;DHT22;11079;51.092;3.458;2023-04-25T04:32:09;8.20;99.90
21834;DHT22;11079;51.092;3.458;2023-04-25T04:34:35;8.10;99.90
21834;DHT22;11079;51.092;3.458;2023-04-25T04:37:01;8.00;99.90
21834;DHT22;11079;51.092;3.458;2023-04-25T04:39:27;8.10;99.90
21834;DHT22;11079;51.092;3.458;2023-04-25T04:41:53;8.30;99.90
21834;DHT22;11079;51.092;3.458;2023-04-25T04:44:19;8.50;99.90
21834;DHT22;11079;51.092;3.458;2023-04-25T04:46:45;8.50;99.90
21834;DHT22;11079;51.092;3.458;2023-04-25T04:49:12;8.50;99.90
21834;DHT22;11079;51.092;3.458;2023-04-25T04:51:39;8.70;99.90
21834;DHT22;11079;51.092;3.458;2023-04-25T04:54:06;8.80;99.90
21834;DHT22;11079;51.092;3.458;2023-04-25T04:56:32;8.70;99.90
21834;DHT22;11079;51.092;3.458;2023-04-25T04:58:58;8.80;99.90
21834;DHT22;11079;51.092;3.458;2023-04-25T05:01:25;9.00;99.90
21834;DHT22;11079;51.092;3.458;2023-04-25T05:03:51;9.00;99.90
21834;DHT22;11079;51.092;3.458;2023-04-25T05:06:18;9.20;99.90
21834;DHT22;11079;51.092;3.458;2023-04-25T05:08:44;9.20;99.90
21834;DHT22;11079;51.092;3.458;2023-04-25T05:11:10;9.40;99.90
21834;DHT22;11079;51.092;3.458;2023-04-25T05:13:37;9.50;99.90
21834;DHT22;11079;51.092;3.458;2023-04-25T05:16:03;9.60;99.90
21834;DHT22;11079;51.092;3.458;2023-04-25T05:18:29;9.40;99.90
21834;DHT22;11079;51.092;3.458;2023-04-25T05:20:55;9.30;99.90
21834;DHT22;11079;51.092;3.458;2023-04-25T05:23:21;9.20;99.90
21834;DHT22;11079;51.092;3.458;2023-04-25T05:25:46;9.30;99.90
21834;DHT22;11079;51.092;3.458;2023-04-25T05:28:13;9.40;99.90
21834;DHT22;11079;51.092;3.458;2023-04-25T05:30:40;9.50;99.90
21834;DHT22;11079;51.092;3.458;2023-04-25T05:33:05;9.50;99.90
21834;DHT22;11079;51.092;3.458;2023-04-25T05:35:32;9.60;99.90
21834;DHT22;11079;51.092;3.458;2023-04-25T05:37:57;9.70;99.90
21834;DHT22;11079;51.092;3.458;2023-04-25T05:40:23;9.60;99.90
21834;DHT22;11079;51.092;3.458;2023-04-25T05:42:50;9.20;99.90
21834;DHT22;11079;51.092;3.458;2023-04-25T05:45:15;9.20;99.90
21834;DHT22;11079;51.092;3.458;2023-04-25T05:47:42;9.10;99.90
21834;DHT22;11079;51.092;3.458;2023-04-25T05:50:08;9.10;99.90
21834;DHT22;11079;51.092;3.458;2023-04-25T05:52:34;9.20;99.90
21834;DHT22;11079;51.092;3.458;2023-04-25T05:55:00;9.10;99.90
21834;DHT22;11079;51.092;3.458;2023-04-25T05:57:26;9.10;99.90
21834;DHT22;11079;51.092;3.458;2023-04-25T05:59:53;9.20;99.90
21834;DHT22;11079;51.092;3.458;2023-04-25T06:02:19;9.40;99.90
21834;DHT22;11079;51.092;3.458;2023-04-25T06:04:46;9.50;99.90
21834;DHT22;11079;51.092;3.458;2023-04-25T06:07:12;9.60;99.90
21834;DHT22;11079;51.092;3.458;2023-04-25T06:09:38;9.80;99.90
21834;DHT22;11079;51.092;3.458;2023-04-25T06:12:05;9.80;99.90
21834;DHT22;11079;51.092;3.458;2023-04-25T06:14:31;9.90;99.90
21834;DHT22;11079;51.092;3.458;2023-04-25T06:16:57;10.00;99.90
21834;DHT22;11079;51.092;3.458;2023-04-25T06:19:22;10.20;99.90
21834;DHT22;11079;51.092;3.458;2023-04-25T06:21:48;10.20;99.90
21834;DHT22;11079;51.092;3.458;2023-04-25T06:24:14;10.00;99.90
21834;DHT22;11079;51.092;3.458;2023-04-25T06:26:39;10.00;99.90
21834;DHT22;11079;51.092;3.458;2023-04-25T06:29:05;10.00;99.90
21834;DHT22;11079;51.092;3.458;2023-04-25T06:31:30;10.10;99.90
21834;DHT22;11079;51.092;3.458;2023-04-25T06:33:58;10.30;99.90
21834;DHT22;11079;51.092;3.458;2023-04-25T06:36:24;10.40;99.90
21834;DHT22;11079;51.092;3.458;2023-04-25T06:38:51;10.50;99.90
21834;DHT22;11079;51.092;3.458;2023-04-25T06:41:20;10.70;99.90
21834;DHT22;11079;51.092;3.458;2023-04-25T06:43:46;11.00;99.90
21834;DHT22;11079;51.092;3.458;2023-04-25T06:46:12;11.30;99.90
21834;DHT22;11079;51.092;3.458;2023-04-25T06:48:37;11.90;99.90
21834;DHT22;11079;51.092;3.458;2023-04-25T06:51:03;13.20;99.90
21834;DHT22;11079;51.092;3.458;2023-04-25T06:53:29;14.20;99.90
21834;DHT22;11079;51.092;3.458;2023-04-25T06:55:55;14.50;99.90
21834;DHT22;11079;51.092;3.458;2023-04-25T06:58:21;14.30;99.90
21834;DHT22;11079;51.092;3.458;2023-04-25T07:00:46;14.10;99.90
21834;DHT22;11079;51.092;3.458;2023-04-25T07:03:12;14.80;99.90
21834;DHT22;11079;51.092;3.458;2023-04-25T07:05:38;15.20;99.90
21834;DHT22;11079;51.092;3.458;2023-04-25T07:08:03;16.50;99.90
21834;DHT22;11079;51.092;3.458;2023-04-25T07:10:29;18.00;99.90
21834;DHT22;11079;51.092;3.458;2023-04-25T07:12:55;19.30;99.90
21834;DHT22;11079;51.092;3.458;2023-04-25T07:15:21;19.00;99.90
21834;DHT22;11079;51.092;3.458;2023-04-25T07:17:46;18.80;99.90
21834;DHT22;11079;51.092;3.458;2023-04-25T07:20:12;20.50;99.90
21834;DHT22;11079;51.092;3.458;2023-04-25T07:22:38;21.40;99.90
21834;DHT22;11079;51.092;3.458;2023-04-25T07:25:05;23.20;99.90
21834;DHT22;11079;51.092;3.458;2023-04-25T07:27:31;22.70;96.60
21834;DHT22;11079;51.092;3.458;2023-04-25T07:29:57;23.20;96.60
21834;DHT22;11079;51.092;3.458;2023-04-25T07:32:22;23.20;94.30
21834;DHT22;11079;51.092;3.458;2023-04-25T07:34:48;21.50;94.80
21834;DHT22;11079;51.092;3.458;2023-04-25T07:37:14;19.50;99.20
21834;DHT22;11079;51.092;3.458;2023-04-25T07:39:40;17.10;99.90
21834;DHT22;11079;51.092;3.458;2023-04-25T07:42:07;15.70;99.90
21834;DHT22;11079;51.092;3.458;2023-04-25T07:44:35;14.40;99.90
21834;DHT22;11079;51.092;3.458;2023-04-25T07:47:06;13.40;99.90
21834;DHT22;11079;51.092;3.458;2023-04-25T07:49:35;12.70;99.90
21834;DHT22;11079;51.092;3.458;2023-04-25T07:52:01;12.40;99.90
21834;DHT22;11079;51.092;3.458;2023-04-25T07:54:27;12.60;99.90
21834;DHT22;11079;51.092;3.458;2023-04-25T07:56:53;12.80;99.90
21834;DHT22;11079;51.092;3.458;2023-04-25T07:59:19;12.70;99.90
21834;DHT22;11079;51.092;3.458;2023-04-25T08:01:44;12.80;99.90
21834;DHT22;11079;51.092;3.458;2023-04-25T08:04:10;12.50;99.90
21834;DHT22;11079;51.092;3.458;2023-04-25T08:06:36;13.70;99.90
21834;DHT22;11079;51.092;3.458;2023-04-25T08:09:02;16.50;99.90
21834;DHT22;11079;51.092;3.458;2023-04-25T08:11:28;17.80;99.90
21834;DHT22;11079;51.092;3.458;2023-04-25T08:13:54;17.40;99.90
21834;DHT22;11079;51.092;3.458;2023-04-25T08:16:20;17.70;99.90
21834;DHT22;11079;51.092;3.458;2023-04-25T08:18:46;17.00;99.90
21834;DHT22;11079;51.092;3.458;2023-04-25T08:21:11;15.60;99.90
21834;DHT22;11079;51.092;3.458;2023-04-25T08:23:38;14.50;99.90
21834;DHT22;11079;51.092;3.458;2023-04-25T08:26:04;13.60;99.90
21834;DHT22;11079;51.092;3.458;2023-04-25T08:28:30;13.10;99.90
21834;DHT22;11079;51.092;3.458;2023-04-25T08:30:56;13.10;99.90
21834;DHT22;11079;51.092;3.458;2023-04-25T08:33:22;13.70;99.90
21834;DHT22;11079;51.092;3.458;2023-04-25T08:35:49;15.50;99.90
21834;DHT22;11079;51.092;3.458;2023-04-25T08:38:15;18.40;99.90
21834;DHT22;11079;51.092;3.458;2023-04-25T08:40:44;20.50;99.90
21834;DHT22;11079;51.092;3.458;2023-04-25T08:43:13;19.70;99.90
21834;DHT22;11079;51.092;3.458;2023-04-25T08:45:41;17.40;99.90
21834;DHT22;11079;51.092;3.458;2023-04-25T08:48:15;15.60;99.90
21834;DHT22;11079;51.092;3.458;2023-04-25T08:50:49;14.10;99.90
21834;DHT22;11079;51.092;3.458;2023-04-25T08:53:17;13.00;99.90
21834;DHT22;11079;51.092;3.458;2023-04-25T08:55:46;12.60;99.90
21834;DHT22;11079;51.092;3.458;2023-04-25T08:58:13;12.20;99.90
21834;DHT22;11079;51.092;3.458;2023-04-25T09:00:39;12.10;99.90
21834;DHT22;11079;51.092;3.458;2023-04-25T09:03:05;12.00;99.90
21834;DHT22;11079;51.092;3.458;2023-04-25T09:05:33;12.10;99.90
21834;DHT22;11079;51.092;3.458;2023-04-25T09:08:00;12.30;99.90
21834;DHT22;11079;51.092;3.458;2023-04-25T09:10:27;12.40;99.90
21834;DHT22;11079;51.092;3.458;2023-04-25T09:13:04;12.70;99.90
21834;DHT22;11079;51.092;3.458;2023-04-25T09:15:31;13.20;99.90
21834;DHT22;11079;51.092;3.458;2023-04-25T09:17:57;13.90;99.90
21834;DHT22;11079;51.092;3.458;2023-04-25T09:20:23;14.50;99.90
21834;DHT22;11079;51.092;3.458;2023-04-25T09:23:11;15.10;99.90
21834;DHT22;11079;51.092;3.458;2023-04-25T09:25:38;15.40;99.90
21834;DHT22;11079;51.092;3.458;2023-04-25T09:28:05;16.90;99.90
21834;DHT22;11079;51.092;3.458;2023-04-25T09:30:33;17.50;99.90
21834;DHT22;11079;51.092;3.458;2023-04-25T09:33:10;17.40;99.90
21834;DHT22;11079;51.092;3.458;2023-04-25T09:35:37;17.90;99.90
21834;DHT22;11079;51.092;3.458;2023-04-25T09:38:11;19.30;99.90
21834;DHT22;11079;51.092;3.458;2023-04-25T09:40:42;19.40;99.90
21834;DHT22;11079;51.092;3.458;2023-04-25T09:43:24;20.50;99.90
21834;DHT22;11079;51.092;3.458;2023-04-25T09:45:54;20.10;99.90
21834;DHT22;11079;51.092;3.458;2023-04-25T09:48:23;18.80;99.90
21834;DHT22;11079;51.092;3.458;2023-04-25T09:51:15;18.30;99.90
21834;DHT22;11079;51.092;3.458;2023-04-25T09:53:42;16.90;99.90
21834;DHT22;11079;51.092;3.458;2023-04-25T09:56:10;16.20;99.90
21834;DHT22;11079;51.092;3.458;2023-04-25T09:58:37;15.90;99.90
21834;DHT22;11079;51.092;3.458;2023-04-25T10:01:05;15.20;99.90
21834;DHT22;11079;51.092;3.458;2023-04-25T10:03:33;14.40;99.90
21834;DHT22;11079;51.092;3.458;2023-04-25T10:06:01;14.40;99.90
21834;DHT22;11079;51.092;3.458;2023-04-25T10:08:36;14.70;99.90
21834;DHT22;11079;51.092;3.458;2023-04-25T10:11:04;14.30;99.90
21834;DHT22;11079;51.092;3.458;2023-04-25T10:13:30;14.40;99.90
21834;DHT22;11079;51.092;3.458;2023-04-25T10:16:01;14.20;99.90
21834;DHT22;11079;51.092;3.458;2023-04-25T10:18:28;14.00;99.90
21834;DHT22;11079;51.092;3.458;2023-04-25T10:21:02;14.00;99.90
21834;DHT22;11079;51.092;3.458;2023-04-25T10:23:30;13.90;99.90
21834;DHT22;11079;51.092;3.458;2023-04-25T10:25:55;13.90;99.90
21834;DHT22;11079;51.092;3.458;2023-04-25T10:28:22;14.00;99.90
21834;DHT22;11079;51.092;3.458;2023-04-25T10:31:01;14.00;99.90
21834;DHT22;11079;51.092;3.458;2023-04-25T10:33:38;14.40;99.90
21834;DHT22;11079;51.092;3.458;2023-04-25T10:36:12;14.50;99.90
21834;DHT22;11079;51.092;3.458;2023-04-25T10:38:39;14.70;99.90
21834;DHT22;11079;51.092;3.458;2023-04-25T10:41:06;14.90;99.90
21834;DHT22;11079;51.092;3.458;2023-04-25T10:43:41;15.40;99.90
21834;DHT22;11079;51.092;3.458;2023-04-25T10:48:46;17.80;99.90
21834;DHT22;11079;51.092;3.458;2023-04-25T10:51:19;18.20;99.90
21834;DHT22;11079;51.092;3.458;2023-04-25T10:54:05;18.90;99.90
21834;DHT22;11079;51.092;3.458;2023-04-25T10:56:41;19.20;99.90
21834;DHT22;11079;51.092;3.458;2023-04-25T10:59:18;20.80;99.90
21834;DHT22;11079;51.092;3.458;2023-04-25T11:01:49;22.90;99.90
21834;DHT22;11079;51.092;3.458;2023-04-25T11:07:13;23.10;98.80
21834;DHT22;11079;51.092;3.458;2023-04-25T11:09:44;20.80;96.90
21834;DHT22;11079;51.092;3.458;2023-04-25T11:12:11;18.80;99.30
21834;DHT22;11079;51.092;3.458;2023-04-25T11:14:40;18.20;98.40
21834;DHT22;11079;51.092;3.458;2023-04-25T11:17:06;17.60;99.90
21834;DHT22;11079;51.092;3.458;2023-04-25T11:19:32;16.80;99.90
21834;DHT22;11079;51.092;3.458;2023-04-25T11:21:59;16.50;99.90
21834;DHT22;11079;51.092;3.458;2023-04-25T11:24:34;16.90;99.90
21834;DHT22;11079;51.092;3.458;2023-04-25T11:27:01;17.70;99.90
21834;DHT22;11079;51.092;3.458;2023-04-25T11:29:32;18.90;99.90
21834;DHT22;11079;51.092;3.458;2023-04-25T11:31:58;20.00;98.30
21834;DHT22;11079;51.092;3.458;2023-04-25T11:34:25;21.40;99.90
21834;DHT22;11079;51.092;3.458;2023-04-25T11:36:52;23.50;94.40
21834;DHT22;11079;51.092;3.458;2023-04-25T11:39:21;21.70;85.00
21834;DHT22;11079;51.092;3.458;2023-04-25T11:41:48;20.30;87.00
21834;DHT22;11079;51.092;3.458;2023-04-25T11:44:18;20.40;93.30
21834;DHT22;11079;51.092;3.458;2023-04-25T11:46:44;21.00;94.80
21834;DHT22;11079;51.092;3.458;2023-04-25T11:49:11;21.20;92.90
21834;DHT22;11079;51.092;3.458;2023-04-25T11:51:41;19.20;92.90
21834;DHT22;11079;51.092;3.458;2023-04-25T11:54:07;17.80;97.50
21834;DHT22;11079;51.092;3.458;2023-04-25T11:56:33;16.80;98.90
21834;DHT22;11079;51.092;3.458;2023-04-25T11:59:05;16.40;99.90
21834;DHT22;11079;51.092;3.458;2023-04-25T12:01:36;16.20;99.90
21834;DHT22;11079;51.092;3.458;2023-04-25T12:04:13;16.00;99.90
21834;DHT22;11079;51.092;3.458;2023-04-25T12:06:40;15.20;99.90
21834;DHT22;11079;51.092;3.458;2023-04-25T12:09:11;14.80;99.90
21834;DHT22;11079;51.092;3.458;2023-04-25T12:14:11;14.50;99.90
21834;DHT22;11079;51.092;3.458;2023-04-25T12:16:45;14.20;99.90
21834;DHT22;11079;51.092;3.458;2023-04-25T12:19:14;14.10;99.90
21834;DHT22;11079;51.092;3.458;2023-04-25T12:21:41;13.60;99.90
21834;DHT22;11079;51.092;3.458;2023-04-25T12:24:14;13.90;99.90
21834;DHT22;11079;51.092;3.458;2023-04-25T12:26:50;14.30;99.90
21834;DHT22;11079;51.092;3.458;2023-04-25T12:29:23;15.10;99.90
21834;DHT22;11079;51.092;3.458;2023-04-25T12:31:51;16.50;99.90
21834;DHT22;11079;51.092;3.458;2023-04-25T12:34:19;17.00;99.90
21834;DHT22;11079;51.092;3.458;2023-04-25T12:36:45;17.00;99.90
21834;DHT22;11079;51.092;3.458;2023-04-25T12:39:19;17.50;99.90
21834;DHT22;11079;51.092;3.458;2023-04-25T12:41:45;17.30;99.90
21834;DHT22;11079;51.092;3.458;2023-04-25T12:44:12;16.70;99.90
21834;DHT22;11079;51.092;3.458;2023-04-25T12:46:39;17.30;99.90
21834;DHT22;11079;51.092;3.458;2023-04-25T12:49:05;17.70;99.90
21834;DHT22;11079;51.092;3.458;2023-04-25T12:51:33;18.30;99.90
21834;DHT22;11079;51.092;3.458;2023-04-25T12:54:00;19.50;99.90
21834;DHT22;11079;51.092;3.458;2023-04-25T12:56:26;20.60;99.20
21834;DHT22;11079;51.092;3.458;2023-04-25T12:58:53;21.40;95.70
21834;DHT22;11079;51.092;3.458;2023-04-25T13:01:19;21.00;95.90
21834;DHT22;11079;51.092;3.458;2023-04-25T13:03:45;21.40;94.90
21834;DHT22;11079;51.092;3.458;2023-04-25T13:06:11;21.30;99.90
21834;DHT22;11079;51.092;3.458;2023-04-25T13:08:39;22.90;99.40
21834;DHT22;11079;51.092;3.458;2023-04-25T13:11:06;22.20;95.20
21834;DHT22;11079;51.092;3.458;2023-04-25T13:13:33;22.00;94.70
21834;DHT22;11079;51.092;3.458;2023-04-25T13:16:01;21.30;96.70
21834;DHT22;11079;51.092;3.458;2023-04-25T13:18:28;20.80;96.80
21834;DHT22;11079;51.092;3.458;2023-04-25T13:20:53;21.50;96.30
21834;DHT22;11079;51.092;3.458;2023-04-25T13:23:20;21.40;94.10
21834;DHT22;11079;51.092;3.458;2023-04-25T13:25:46;21.00;94.80
21834;DHT22;11079;51.092;3.458;2023-04-25T13:28:12;20.20;95.80
21834;DHT22;11079;51.092;3.458;2023-04-25T13:30:38;19.90;96.40
21834;DHT22;11079;51.092;3.458;2023-04-25T13:33:04;20.40;96.20
21834;DHT22;11079;51.092;3.458;2023-04-25T13:35:32;21.20;93.60
21834;DHT22;11079;51.092;3.458;2023-04-25T13:37:59;20.70;97.70
21834;DHT22;11079;51.092;3.458;2023-04-25T13:40:24;20.50;94.50
21834;DHT22;11079;51.092;3.458;2023-04-25T13:42:50;20.40;93.40
21834;DHT22;11079;51.092;3.458;2023-04-25T13:45:16;20.20;95.20
21834;DHT22;11079;51.092;3.458;2023-04-25T13:47:42;19.80;97.40
21834;DHT22;11079;51.092;3.458;2023-04-25T13:50:08;19.80;95.60
21834;DHT22;11079;51.092;3.458;2023-04-25T13:52:35;19.70;95.60
21834;DHT22;11079;51.092;3.458;2023-04-25T13:55:00;17.90;95.70
21834;DHT22;11079;51.092;3.458;2023-04-25T13:57:28;17.00;96.70
21834;DHT22;11079;51.092;3.458;2023-04-25T13:59:55;16.10;99.90
21834;DHT22;11079;51.092;3.458;2023-04-25T14:02:21;16.60;99.90
21834;DHT22;11079;51.092;3.458;2023-04-25T14:04:47;17.80;99.90
21834;DHT22;11079;51.092;3.458;2023-04-25T14:07:14;18.70;99.90
21834;DHT22;11079;51.092;3.458;2023-04-25T14:09:42;18.80;99.70
21834;DHT22;11079;51.092;3.458;2023-04-25T14:12:07;19.30;97.80
21834;DHT22;11079;51.092;3.458;2023-04-25T14:14:33;18.20;99.90
21834;DHT22;11079;51.092;3.458;2023-04-25T14:16:59;16.60;99.90
21834;DHT22;11079;51.092;3.458;2023-04-25T14:19:24;16.00;99.90
21834;DHT22;11079;51.092;3.458;2023-04-25T14:21:51;15.90;99.90
21834;DHT22;11079;51.092;3.458;2023-04-25T14:24:17;15.80;99.90
21834;DHT22;11079;51.092;3.458;2023-04-25T14:26:43;16.10;99.90
21834;DHT22;11079;51.092;3.458;2023-04-25T14:29:09;16.10;99.90
21834;DHT22;11079;51.092;3.458;2023-04-25T14:31:37;15.70;99.90
21834;DHT22;11079;51.092;3.458;2023-04-25T14:34:05;15.50;99.90
21834;DHT22;11079;51.092;3.458;2023-04-25T14:36:31;15.10;99.90
21834;DHT22;11079;51.092;3.458;2023-04-25T14:38:58;14.70;99.90
21834;DHT22;11079;51.092;3.458;2023-04-25T14:41:24;14.70;99.90
21834;DHT22;11079;51.092;3.458;2023-04-25T14:43:50;14.30;99.90
21834;DHT22;11079;51.092;3.458;2023-04-25T14:46:16;14.10;99.90
21834;DHT22;11079;51.092;3.458;2023-04-25T14:48:42;14.40;99.90
21834;DHT22;11079;51.092;3.458;2023-04-25T14:51:08;14.60;99.90
21834;DHT22;11079;51.092;3.458;2023-04-25T14:53:34;14.50;99.90
21834;DHT22;11079;51.092;3.458;2023-04-25T14:55:59;14.30;99.90
21834;DHT22;11079;51.092;3.458;2023-04-25T14:58:25;14.40;99.90
21834;DHT22;11079;51.092;3.458;2023-04-25T15:00:51;14.70;99.90
21834;DHT22;11079;51.092;3.458;2023-04-25T15:03:18;14.70;99.90
21834;DHT22;11079;51.092;3.458;2023-04-25T15:05:44;14.10;99.90
21834;DHT22;11079;51.092;3.458;2023-04-25T15:08:09;13.70;99.90
21834;DHT22;11079;51.092;3.458;2023-04-25T15:10:38;13.40;99.90
21834;DHT22;11079;51.092;3.458;2023-04-25T15:13:04;13.20;99.90
21834;DHT22;11079;51.092;3.458;2023-04-25T15:15:30;13.50;99.90
21834;DHT22;11079;51.092;3.458;2023-04-25T15:17:56;13.40;99.90
21834;DHT22;11079;51.092;3.458;2023-04-25T15:20:22;13.30;99.90
21834;DHT22;11079;51.092;3.458;2023-04-25T15:22:48;13.30;99.90
21834;DHT22;11079;51.092;3.458;2023-04-25T15:25:15;13.30;99.90
21834;DHT22;11079;51.092;3.458;2023-04-25T15:27:43;13.30;99.90
21834;DHT22;11079;51.092;3.458;2023-04-25T15:30:13;13.10;99.90
21834;DHT22;11079;51.092;3.458;2023-04-25T15:32:42;13.00;99.90
21834;DHT22;11079;51.092;3.458;2023-04-25T15:35:08;12.80;99.90
21834;DHT22;11079;51.092;3.458;2023-04-25T15:37:35;12.50;99.90
21834;DHT22;11079;51.092;3.458;2023-04-25T15:40:09;12.30;99.90
21834;DHT22;11079;51.092;3.458;2023-04-25T15:42:36;12.50;99.90